Impacts TAF Board
For situational awareness. Not to be used for flight planning purposes.
IDs:

KPVW - Plainview/Hale Cnty, TX, US

Issued at 1132 UTC 30 Oct 2020
Updated at 1700 UTC 30 Oct 2020
Potential Impact None Slight Moderate High
Time1635Z 30/17Z 30/18Z 30/19Z 30/20Z 30/21Z 30/22Z 30/23Z 31/00Z 31/01Z 31/02Z 31/03Z 31/04Z 31/05Z>>
Type OBS PRVL PRVL PRVL PRVL PRVL PRVL PRVL PRVL PRVL PRVL PRVL PRVL PRVL
VIS 10 >6 >6 >6 >6 >6 >6 >6 >6 >6 >6 >6 >6 >6
CIG -- -- -- -- -- -- -- -- -- -- -- -- -- --
Cover CLR FEW FEW FEW FEW FEW FEW FEW FEW FEW FEW FEW FEW FEW
FltCat VFR VFR VFR VFR VFR VFR VFR VFR VFR VFR VFR VFR VFR VFR
WX -- -- -- -- -- -- -- -- -- -- -- -- -- --
WDir 220 VRB VRB VRB VRB VRB VRB VRB VRB VRB VRB VRB VRB VRB
WSpd 10 6 6 6 6 6 6 6 6 6 6 6 6 6
WGst -- -- -- -- -- -- -- -- -- -- -- -- -- --
Raw TAF
KPVW 301132Z 3012/3112 VRB06KT P6SM FEW250
  FM311000 23011KT P6SM FEW250


Raw METAR
KPVW 301635Z AUTO 22010KT 10SM CLR 13/04 A3029 RMK AO2 T01280040
KPVW 301615Z AUTO 22009KT 10SM CLR 12/04 A3030 RMK AO2 T01150042
KPVW 301555Z AUTO 24011KT 10SM CLR 11/04 A3031 RMK AO2 T01050036
KPVW 301535Z AUTO 23010KT 10SM CLR 09/03 A3031 RMK AO2 T00940034
KPVW 301515Z AUTO 23007KT 10SM CLR 08/04 A3031 RMK AO2 T00820037
KPVW 301455Z AUTO 24006KT 10SM CLR 07/03 A3031 RMK AO2 T00650032
KPVW 301435Z AUTO 00000KT 10SM CLR 04/02 A3030 RMK AO2 T00440019
KPVW 301415Z AUTO 00000KT 10SM CLR 03/02 A3029 RMK AO2 T00280015
KPVW 301355Z AUTO 00000KT 10SM CLR 01/00 A3029 RMK AO2 T00090000
KPVW 301335Z AUTO 00000KT 10SM CLR 01/M01 A3028 RMK AO2 T00051006

METAR Board
For situational awareness. Not to be used for flight planning purposes.